Flight Track Log - Related Links

Times and Time Zones

All times are in EDT time to prevent confusion due to time zone crossing. See the RPA4911 flight status page for this flight to view local times or setup timezone preferences in your user account.

Time Position Orientation Groundspeed Altitude Reporting Facility
EDT Latitude Longitude Course Direction KTS MPH feet Rate Location/Type
Fri 06:12:17 AM 42.7714 -73.8092 200° South 179 206 1,400  Level Boston Center
Fri 06:13:28 AM 42.7958 -73.8661 300° West 237 273 3,800 1,864 Climbing Boston Center
Fri 06:14:00 AM 42.4463 -73.8575 196° South  Level Estimated
Fri 06:14:29 AM 42.7369 -73.8931 199° South 286 329 5,500  Level Boston Center
Fri 06:15:00 AM 42.3453 -73.8759 197° South  Level Estimated
Fri 06:15:28 AM 42.6617 -73.9139 192° South 286 329 7,500  Level Boston Center
Fri 06:16:00 AM 42.2707 -73.9697 223° Southwest  Level FlightAware Approximate
Fri 06:16:28 AM 42.5739 -73.9372 191° South 286 329 9,900  Level Boston Center
Fri 06:17:00 AM 42.1693 -73.9828 200° South  Level Estimated
Fri 06:17:30 AM 42.4967 -73.9578 191° South 286 329 11,800  Level Boston Center
Fri 06:18:30 AM 42.4067 -73.9867 193° South 317 365 12,000 101 Climbing Boston Center
Fri 06:19:29 AM 42.3144 -74.0094 190° South 339 390 12,000  Level Boston Center
Fri 06:20:30 AM 42.2183 -74.0408 194° South 354 407 12,000 50 Level Boston Center
Fri 06:21:29 AM 42.1300 -74.0806 198° South 354 407 12,100 51 Climbing Boston Center
Fri 06:22:28 AM 42.0400 -74.1200 198° South 343 395 12,100  Level Boston Center
Fri 06:23:28 AM 41.9622 -74.1517 197° South 336 387 12,100 -200 Level Boston Center
Fri 06:24:28 AM 41.8700 -74.1936 199° South 330 380 11,700 -893 Descending Boston Center
Fri 06:25:29 AM 41.7944 -74.2278 199° South 324 373 10,300 -1,475 Descending Boston Center
Fri 06:26:30 AM 41.7083 -74.2617 196° South 305 351 8,700 -1,488 Descending Boston Center
Fri 06:27:30 AM 41.6411 -74.2931 199° South 299 344 7,300 -814 Descending Boston Center
Fri 06:28:28 AM 41.5614 -74.3267 198° South 284 327 7,100 -100 Descending Boston Center
Fri 06:29:30 AM 41.4983 -74.3553 199° South 279 321 7,100 -96 Level Boston Center
Fri 06:31:36 AM 41.3333 -74.3667 183° South 274 315 6,800 -367 Descending New York TRACON
Fri 06:32:30 AM 41.2833 -74.3167 143° Southeast 270 311 6,000 -889 Descending New York TRACON
Fri 06:33:24 AM 41.2167 -74.2833 159° South 264 304 5,200 -632 Descending New York TRACON
Fri 06:34:24 AM 41.1500 -74.2500 159° South 256 295 4,800 -900 Descending New York TRACON
Fri 06:35:24 AM 41.0833 -74.2000 151° Southeast 258 297 3,400 -947 Descending New York TRACON
Fri 06:36:18 AM 41.0333 -74.1667 153° Southeast 251 289 3,000 -211 Descending New York TRACON
Fri 06:37:18 AM 40.9667 -74.1333 159° South 258 297 3,000  Level New York TRACON
Fri 06:38:12 AM 40.9000 -74.1000 159° South 257 296 3,000 -250 Level New York TRACON
Fri 06:39:18 AM 40.8333 -74.0833 169° South 212 244 2,500 -450 Descending New York TRACON
Fri 06:40:12 AM 40.8000 -74.1000 201° Southwest 183 211 2,100 -667 Descending New York TRACON
Fri 06:41:06 AM 40.7500 -74.1167 194° South 152 175 1,300 -778 Descending New York TRACON
Fri 06:42:00 AM 40.7333 -74.1500 237° Southwest 120 138 700 -667 Descending New York TRACON

Login

Don't have an account? Register now (free) for customized features, flight alerts, and more!